Time;durP1;ratioP1;P1;durP2;ratioP2;P2;SDS_P1;SDS_P2;PMS_P1;PMS_P2;Temp;Humidity;BMP_temperature;BMP_pressure;BME280_temperature;BME280_humidity;BME280_pressure;Samples;Min_cycle;Max_cycle;Signal;HPM_P1;HPM_P2
2022/06/18 00:01:38;;;;;;;;;;;24.60;55.00;;;;;;5116774;28;20055;-36
2022/06/18 00:04:07;;;;;;;1.70;1.60;;;24.60;54.90;;;;;;5116335;28;19943;-36
2022/06/18 00:06:53;;;;;;;4.00;1.55;;;24.50;55.00;;;;;;5116515;28;20030;-36
2022/06/18 00:09:31;;;;;;;3.58;1.90;;;24.50;55.10;;;;;;5116201;28;20022;-35
2022/06/18 00:14:49;;;;;;;2.10;1.90;;;24.50;55.30;;;;;;5116417;28;20510;-36
2022/06/18 00:17:17;;;;;;;3.25;1.77;;;24.50;55.40;;;;;;5115979;28;20016;-35
2022/06/18 00:19:43;;;;;;;3.28;1.88;;;24.40;55.40;;;;;;5116101;27;20370;-35
2022/06/18 00:22:13;;;;;;;3.75;1.60;;;24.40;55.60;;;;;;5116015;28;20024;-36
2022/06/18 00:24:39;;;;;;;2.13;1.83;;;24.40;55.70;;;;;;5115935;28;20392;-36
2022/06/18 00:27:05;;;;;;;2.90;1.67;;;24.30;55.60;;;;;;5115950;28;20027;-36
2022/06/18 00:29:31;;;;;;;2.80;1.90;;;24.30;55.70;;;;;;5115818;28;20028;-36
2022/06/18 00:31:56;;;;;;;2.17;1.92;;;24.30;55.70;;;;;;5115799;28;20023;-36
2022/06/18 00:34:22;;;;;;;2.85;1.90;;;24.20;55.80;;;;;;5115411;28;20457;-36
2022/06/18 00:36:48;;;;;;;4.07;2.10;;;24.20;55.90;;;;;;5115933;28;20054;-36
2022/06/18 00:39:16;;;;;;;2.25;1.90;;;24.20;56.10;;;;;;5115602;28;20024;-35
2022/06/18 00:41:45;;;;;;;2.63;2.08;;;24.20;56.20;;;;;;5115674;28;20020;-36
2022/06/18 00:44:38;;;;;;;2.30;1.85;;;24.20;56.30;;;;;;5115830;28;20528;-36
2022/06/18 00:47:14;;;;;;;2.28;1.75;;;24.10;56.40;;;;;;5115509;28;20027;-38
2022/06/18 00:49:52;;;;;;;3.45;2.08;;;24.00;56.40;;;;;;5115470;28;20057;-36
2022/06/18 00:52:40;;;;;;;2.13;1.85;;;24.00;56.50;;;;;;5115390;28;20387;-36
2022/06/18 00:55:18;;;;;;;2.25;1.90;;;24.00;56.60;;;;;;5115566;28;20080;-36
2022/06/18 00:57:51;;;;;;;2.30;1.88;;;24.00;56.70;;;;;;5115407;28;20020;-36
2022/06/18 01:00:22;;;;;;;3.75;2.33;;;24.00;56.80;;;;;;5115264;28;20038;-36
2022/06/18 01:02:49;;;;;;;1.88;1.60;;;23.90;56.80;;;;;;5115399;28;20035;-36
2022/06/18 01:05:15;;;;;;;2.58;1.98;;;23.90;56.90;;;;;;5115440;28;20020;-34
2022/06/18 01:07:40;;;;;;;2.45;1.90;;;23.80;57.00;;;;;;5115352;28;20113;-37
2022/06/18 01:10:15;;;;;;;3.35;2.03;;;23.80;57.10;;;;;;5115118;28;20392;-38
2022/06/18 01:12:41;;;;;;;3.00;2.03;;;23.80;57.20;;;;;;5115467;28;20023;-36
2022/06/18 01:15:10;;;;;;;3.90;2.00;;;23.80;57.30;;;;;;5114920;28;20023;-35
2022/06/18 01:17:38;;;;;;;4.43;2.05;;;23.70;57.30;;;;;;5114868;27;20031;-35
2022/06/18 01:20:09;;;;;;;2.17;1.90;;;23.70;57.50;;;;;;5114930;28;20076;-36
2022/06/18 01:22:49;;;;;;;2.47;2.00;;;23.70;57.50;;;;;;5114715;28;20027;-36
2022/06/18 01:25:15;;;;;;;4.82;2.20;;;23.60;57.60;;;;;;5114866;28;20378;-34
2022/06/18 01:27:40;;;;;;;2.90;1.83;;;23.60;57.50;;;;;;5115063;28;20023;-36
2022/06/18 01:30:09;;;;;;;2.22;2.03;;;23.60;57.60;;;;;;5115199;28;20026;-36
2022/06/18 01:32:35;;;;;;;2.30;2.00;;;23.60;57.70;;;;;;5114585;28;20016;-35
2022/06/18 01:35:03;;;;;;;5.07;1.80;;;23.60;57.90;;;;;;5114717;28;20062;-36
2022/06/18 01:37:28;;;;;;;3.03;2.00;;;23.50;57.90;;;;;;5114301;28;20043;-36
2022/06/18 01:39:54;;;;;;;2.10;1.90;;;23.50;58.00;;;;;;5114687;28;20152;-36
2022/06/18 01:42:25;;;;;;;2.95;2.30;;;23.50;58.10;;;;;;5114367;28;20024;-34
2022/06/18 01:44:53;;;;;;;3.25;1.90;;;23.50;58.20;;;;;;5114674;28;20027;-36
2022/06/18 01:47:26;;;;;;;3.17;2.10;;;23.50;58.30;;;;;;5113778;28;20068;-34
2022/06/18 01:50:13;;;;;;;2.20;2.00;;;23.50;58.40;;;;;;5114404;27;20592;-36
2022/06/18 01:52:46;;;;;;;3.03;1.90;;;23.40;58.40;;;;;;5114374;28;20485;-34
2022/06/18 01:55:21;;;;;;;3.35;2.25;;;23.40;58.50;;;;;;5114221;28;20020;-36
2022/06/18 01:57:55;;;;;;;2.40;2.00;;;23.40;58.50;;;;;;5114750;27;20047;-35
2022/06/18 02:00:24;;;;;;;3.25;2.15;;;23.40;58.60;;;;;;5114479;28;20038;-36
2022/06/18 02:02:51;;;;;;;3.05;1.92;;;23.30;58.60;;;;;;5113954;28;20096;-35
2022/06/18 02:05:17;;;;;;;4.78;2.28;;;23.30;58.70;;;;;;5113971;28;20024;-36
2022/06/18 02:07:46;;;;;;;2.08;1.88;;;23.30;58.80;;;;;;5114367;28;20062;-34
2022/06/18 02:10:18;;;;;;;2.28;2.05;;;23.30;58.90;;;;;;5113957;28;20023;-36
2022/06/18 02:12:45;;;;;;;3.03;2.22;;;23.30;59.10;;;;;;5113882;28;20110;-36
2022/06/18 02:15:16;;;;;;;3.85;2.22;;;23.30;59.10;;;;;;5114042;28;20072;-36
2022/06/18 02:17:42;;;;;;;3.30;2.13;;;23.20;59.20;;;;;;5113957;28;20023;-37
2022/06/18 02:20:20;;;;;;;3.30;2.40;;;23.20;59.90;;;;;;5114369;28;20031;-36
2022/06/18 02:22:49;;;;;;;2.47;2.28;;;23.20;59.30;;;;;;5113864;28;20371;-34
2022/06/18 02:25:17;;;;;;;3.63;2.20;;;23.10;59.40;;;;;;5113942;28;20095;-36
2022/06/18 02:27:43;;;;;;;4.88;2.17;;;23.10;59.50;;;;;;5112328;28;20356;-36
2022/06/18 02:30:16;;;;;;;3.53;2.47;;;23.10;59.60;;;;;;5113599;28;20012;-36
2022/06/18 02:33:10;;;;;;;3.60;2.45;;;23.00;59.70;;;;;;5113491;28;20023;-35
2022/06/18 02:35:35;;;;;;;;;;;23.00;59.80;;;;;;5113983;28;20486;-34
2022/06/18 02:38:11;;;;;;;4.25;2.50;;;23.00;59.70;;;;;;5113444;28;19953;-36
2022/06/18 02:40:36;;;;;;;3.30;2.30;;;22.90;59.80;;;;;;5113409;28;20031;-36
2022/06/18 02:43:02;;;;;;;2.60;2.40;;;22.90;59.90;;;;;;5113387;28;20042;-34
2022/06/18 02:45:30;;;;;;;2.65;2.40;;;22.80;59.90;;;;;;5113452;28;20019;-34
2022/06/18 02:47:58;;;;;;;3.38;2.60;;;22.90;60.10;;;;;;5113639;28;20093;-35
2022/06/18 02:50:26;;;;;;;5.65;2.67;;;22.80;60.00;;;;;;5113333;28;20047;-34
2022/06/18 02:53:00;;;;;;;4.93;2.60;;;22.80;60.20;;;;;;5113515;28;20047;-36
2022/06/18 02:55:34;;;;;;;4.35;2.85;;;22.80;60.20;;;;;;5113217;28;20020;-34
2022/06/18 02:58:05;;;;;;;3.88;2.85;;;22.80;60.40;;;;;;5112959;28;20164;-35
2022/06/18 03:00:36;;;;;;;5.50;2.65;;;22.70;60.50;;;;;;5116340;28;20024;-36
2022/06/18 03:03:02;;;;;;;4.20;3.03;;;22.70;60.60;;;;;;5117655;28;20031;-36
2022/06/18 03:05:28;;;;;;;4.50;3.15;;;22.70;60.70;;;;;;5117496;28;20023;-34
2022/06/18 03:07:54;;;;;;;3.38;2.90;;;22.60;60.80;;;;;;5117392;28;20157;-34
2022/06/18 03:13:05;;;;;;;5.20;3.40;;;22.60;61.00;;;;;;5117924;28;20034;-34
2022/06/18 03:15:31;;;;;;;3.95;3.20;;;22.60;61.20;;;;;;5117880;28;20020;-34
2022/06/18 03:17:58;;;;;;;6.57;3.70;;;22.50;61.40;;;;;;5117219;28;20053;-36
2022/06/18 03:20:30;;;;;;;4.03;3.58;;;22.50;61.60;;;;;;5116300;28;20028;-34
2022/06/18 03:22:57;;;;;;;7.00;3.43;;;22.40;61.70;;;;;;5117416;28;20035;-36
2022/06/18 03:25:22;;;;;;;3.65;3.35;;;22.40;61.70;;;;;;5117080;28;20772;-36
2022/06/18 03:27:48;;;;;;;4.85;3.08;;;22.40;61.90;;;;;;5117481;28;20019;-35
2022/06/18 03:30:13;;;;;;;3.88;3.35;;;22.40;62.00;;;;;;5117067;28;20051;-37
2022/06/18 03:32:39;;;;;;;4.50;3.38;;;22.40;62.00;;;;;;5116793;28;20024;-35
2022/06/18 03:35:05;;;;;;;5.05;3.70;;;22.40;62.10;;;;;;5117012;28;20055;-36
2022/06/18 03:37:32;;;;;;;3.85;3.38;;;22.40;62.10;;;;;;5117147;28;20104;-35
2022/06/18 03:39:57;;;;;;;4.43;3.85;;;22.40;62.90;;;;;;5116834;28;20031;-36
2022/06/18 03:42:23;;;;;;;3.90;3.28;;;22.40;62.30;;;;;;5117060;28;20027;-35
2022/06/18 03:44:48;;;;;;;3.80;3.17;;;22.40;62.30;;;;;;5117215;28;20073;-34
2022/06/18 03:47:14;;;;;;;5.13;3.30;;;22.40;62.40;;;;;;5116871;28;20012;-35
2022/06/18 03:49:40;;;;;;;4.10;3.17;;;22.40;62.50;;;;;;5117083;28;20027;-36
2022/06/18 03:52:08;;;;;;;3.75;3.45;;;22.40;62.50;;;;;;5116934;28;20015;-35
2022/06/18 03:54:33;;;;;;;5.28;3.60;;;22.40;62.60;;;;;;5116516;28;20489;-34
2022/06/18 03:56:59;;;;;;;4.00;3.60;;;22.40;62.70;;;;;;5116662;28;20023;-34
2022/06/18 03:59:25;;;;;;;5.82;3.95;;;22.40;62.80;;;;;;5115109;28;20023;-34
2022/06/18 04:01:51;;;;;;;3.72;3.33;;;22.40;63.00;;;;;;5116819;28;20379;-34
2022/06/18 04:04:16;;;;;;;5.25;3.50;;;22.40;63.00;;;;;;5116369;28;20026;-35
2022/06/18 04:06:44;;;;;;;4.53;3.63;;;22.40;63.00;;;;;;5116229;28;20069;-35
2022/06/18 04:09:10;;;;;;;4.75;4.03;;;22.40;63.00;;;;;;5115668;28;20437;-37
2022/06/18 04:11:36;;;;;;;3.83;3.53;;;22.40;63.00;;;;;;5116488;27;20024;-34
2022/06/18 04:14:03;;;;;;;5.55;3.65;;;22.40;63.00;;;;;;5116142;28;20019;-35
2022/06/18 04:16:29;;;;;;;4.18;3.78;;;22.40;63.00;;;;;;5116378;28;20364;-34
2022/06/18 04:18:55;;;;;;;5.45;3.92;;;22.40;63.10;;;;;;5116249;28;20103;-35
2022/06/18 04:21:21;;;;;;;6.43;4.38;;;22.40;63.10;;;;;;5116189;28;20543;-35
2022/06/18 04:23:46;;;;;;;5.75;3.92;;;22.40;63.20;;;;;;5115965;28;20050;-35
2022/06/18 04:26:12;;;;;;;7.57;4.55;;;22.40;63.30;;;;;;5114608;28;20064;-34
2022/06/18 04:28:38;;;;;;;6.53;4.00;;;22.40;63.30;;;;;;5116056;28;20020;-35
2022/06/18 04:31:04;;;;;;;5.32;4.10;;;22.40;63.30;;;;;;5116015;28;20020;-35
2022/06/18 04:33:31;;;;;;;5.57;4.10;;;22.40;63.30;;;;;;5115678;28;20084;-34
2022/06/18 04:35:58;;;;;;;9.82;4.22;;;22.40;63.30;;;;;;5115522;28;20058;-34
2022/06/18 04:38:24;;;;;;;5.20;4.28;;;22.40;63.30;;;;;;5116039;28;20024;-36
2022/06/18 04:40:50;;;;;;;6.82;4.25;;;22.40;63.40;;;;;;5115929;28;20040;-35
2022/06/18 04:43:16;;;;;;;5.20;4.47;;;22.40;63.30;;;;;;5115645;28;20051;-35
2022/06/18 04:45:42;;;;;;;5.63;4.20;;;22.40;63.30;;;;;;5115455;28;20080;-35
2022/06/18 04:48:08;;;;;;;6.18;3.97;;;22.50;63.30;;;;;;5115440;28;20475;-35
2022/06/18 04:50:37;;;;;;;5.78;3.90;;;22.60;63.30;;;;;;5115551;28;20027;-34
2022/06/18 04:53:05;;;;;;;4.43;4.03;;;22.60;63.30;;;;;;5115663;28;20466;-36
2022/06/18 04:55:31;;;;;;;5.53;3.85;;;22.60;63.20;;;;;;5115661;28;20359;-35
2022/06/18 04:57:57;;;;;;;6.55;4.80;;;22.60;63.10;;;;;;5115371;28;20028;-36
2022/06/18 05:00:22;;;;;;;5.72;3.90;;;22.70;63.20;;;;;;5115301;28;20081;-43
2022/06/18 05:02:48;;;;;;;6.00;4.13;;;22.70;63.20;;;;;;5115143;28;20031;-36
2022/06/18 05:05:17;;;;;;;5.78;3.90;;;22.70;63.20;;;;;;5113962;28;20027;-35
2022/06/18 05:07:43;;;;;;;5.45;4.28;;;22.70;63.20;;;;;;5115054;28;20114;-38
2022/06/18 05:10:10;;;;;;;4.93;3.90;;;22.70;63.10;;;;;;5115351;28;20102;-36
2022/06/18 05:12:36;;;;;;;5.20;4.05;;;22.80;63.20;;;;;;5115230;28;20387;-36
2022/06/18 05:15:02;;;;;;;5.88;4.13;;;22.80;63.10;;;;;;5115228;28;20136;-35
2022/06/18 05:17:31;;;;;;;5.38;3.70;;;22.90;63.10;;;;;;5115128;28;20055;-35
2022/06/18 05:19:57;;;;;;;5.60;4.18;;;22.90;63.00;;;;;;5113481;28;20036;-36
2022/06/18 05:22:23;;;;;;;8.13;4.50;;;23.00;63.00;;;;;;5114286;28;20035;-36
2022/06/18 05:24:49;;;;;;;7.28;4.10;;;23.00;63.00;;;;;;5114884;28;20055;-36
2022/06/18 05:27:31;;;;;;;5.63;3.85;;;23.00;63.00;;;;;;5115066;28;20375;-36
2022/06/18 05:29:56;;;;;;;5.78;3.70;;;23.00;63.10;;;;;;5114998;28;20069;-36
2022/06/18 05:32:22;;;;;;;6.60;4.22;;;23.10;63.00;;;;;;5114539;28;20027;-36
2022/06/18 05:34:48;;;;;;;5.43;4.50;;;23.10;63.00;;;;;;5114532;28;20541;-39
2022/06/18 05:40:36;;;;;;;9.55;4.60;;;23.10;63.10;;;;;;5107586;28;20043;-36
2022/06/18 05:43:01;;;;;;;5.20;4.13;;;23.10;63.10;;;;;;5114620;28;20031;-34
2022/06/18 05:45:27;;;;;;;6.82;4.43;;;23.10;63.10;;;;;;5114351;28;20027;-35
2022/06/18 05:47:53;;;;;;;5.75;4.70;;;23.10;63.20;;;;;;5114782;28;20096;-35
2022/06/18 05:50:19;;;;;;;5.97;5.10;;;23.10;63.20;;;;;;5114268;28;20027;-36
2022/06/18 05:52:45;;;;;;;7.43;5.28;;;23.10;63.30;;;;;;5114280;28;20028;-34
2022/06/18 05:55:10;;;;;;;7.95;4.32;;;23.10;63.30;;;;;;5114212;28;20467;-36
2022/06/18 05:57:51;;;;;;;5.88;4.97;;;23.10;63.40;;;;;;5112848;28;20065;-35
2022/06/18 06:00:19;;;;;;;6.65;5.20;;;23.20;63.50;;;;;;5114355;28;20023;-36
2022/06/18 06:02:45;;;;;;;7.70;4.60;;;23.20;63.50;;;;;;5114114;28;20395;-35
2022/06/18 06:05:10;;;;;;;10.88;4.30;;;23.10;63.50;;;;;;5114163;28;20032;-36
2022/06/18 06:07:36;;;;;;;8.45;4.95;;;23.20;63.60;;;;;;5114421;28;20035;-36
2022/06/18 06:12:49;;;;;;;6.40;5.25;;;23.20;63.50;;;;;;5113946;28;20552;-35
2022/06/18 06:15:15;;;;;;;8.48;5.07;;;23.20;63.50;;;;;;5113972;28;20035;-36
2022/06/18 06:17:44;;;;;;;6.57;4.32;;;23.20;63.70;;;;;;5114093;28;20055;-36
2022/06/18 06:20:21;;;;;;;6.72;4.35;;;23.20;63.70;;;;;;5113095;28;20099;-37
2022/06/18 06:22:47;;;;;;;8.32;5.00;;;23.20;63.80;;;;;;5112436;28;20035;-36
2022/06/18 06:25:12;;;;;;;7.22;4.60;;;23.30;63.70;;;;;;5114269;27;20463;-37
2022/06/18 06:27:38;;;;;;;6.97;4.85;;;23.30;63.70;;;;;;5113690;28;20494;-36
2022/06/18 06:30:04;;;;;;;10.05;5.05;;;23.30;63.70;;;;;;5113731;28;20146;-37
2022/06/18 06:32:29;;;;;;;6.10;4.65;;;23.40;63.80;;;;;;5113443;28;20027;-37
2022/06/18 06:34:55;;;;;;;9.30;5.25;;;23.40;63.90;;;;;;5113656;28;20509;-36
2022/06/18 06:37:21;;;;;;;6.78;4.47;;;23.40;63.80;;;;;;5113823;28;20110;-37
2022/06/18 06:39:46;;;;;;;7.40;4.32;;;23.50;63.80;;;;;;5113541;28;20051;-36
2022/06/18 06:42:12;;;;;;;7.00;5.00;;;23.50;63.70;;;;;;5113516;28;20032;-49
2022/06/18 06:44:37;;;;;;;6.72;4.43;;;23.50;63.70;;;;;;5113750;28;20474;-37
2022/06/18 06:47:03;;;;;;;6.43;4.32;;;23.60;63.70;;;;;;5113602;28;20024;-34
2022/06/18 06:49:29;;;;;;;6.10;4.63;;;23.60;63.60;;;;;;5113510;28;20054;-31
2022/06/18 06:51:54;;;;;;;6.22;4.70;;;23.60;63.50;;;;;;5113532;28;20436;-30
2022/06/18 06:54:20;;;;;;;6.32;5.07;;;23.70;63.50;;;;;;5113723;28;20386;-31
2022/06/18 06:59:30;;;;;;;8.30;5.20;;;23.70;63.60;;;;;;5113724;28;20042;-26
2022/06/18 07:01:55;;;;;;;8.50;4.55;;;23.70;63.60;;;;;;5113290;28;20031;-27
2022/06/18 07:04:23;;;;;;;8.13;5.05;;;23.80;63.70;;;;;;5113363;28;20036;-28
2022/06/18 07:06:49;;;;;;;10.38;4.60;;;23.80;63.80;;;;;;5113305;28;20459;-28
2022/06/18 07:09:14;;;;;;;9.77;5.00;;;23.80;63.80;;;;;;5113538;28;20038;-27
2022/06/18 07:11:40;;;;;;;8.18;4.40;;;23.80;63.80;;;;;;5114029;28;20062;-27
2022/06/18 07:14:06;;;;;;;6.22;4.53;;;23.80;63.70;;;;;;5113183;28;20035;-27
2022/06/18 07:16:32;;;;;;;8.98;4.85;;;23.90;63.70;;;;;;5113500;28;20028;-31
2022/06/18 07:18:58;;;;;;;6.82;4.55;;;24.00;63.70;;;;;;5111855;28;20131;-28
2022/06/18 07:21:24;;;;;;;7.13;5.13;;;24.00;63.80;;;;;;5113033;28;20028;-27
2022/06/18 07:23:50;;;;;;;8.30;5.68;;;24.10;63.80;;;;;;5113037;28;20145;-27
2022/06/18 07:26:20;;;;;;;7.18;5.10;;;24.10;63.80;;;;;;5113158;28;20399;-29
2022/06/18 07:28:46;;;;;;;13.85;6.18;;;24.20;63.80;;;;;;5112922;28;20032;-29
2022/06/18 07:31:41;;;;;;;11.32;6.95;;;24.20;63.70;;;;;;5113291;28;20024;-29
2022/06/18 07:34:07;;;;;;;9.85;5.47;;;24.30;63.90;;;;;;5110710;28;20047;-27
2022/06/18 07:36:33;;;;;;;11.95;6.00;;;24.30;63.90;;;;;;5112964;28;20045;-27
2022/06/18 07:39:00;;;;;;;11.68;5.60;;;24.30;63.90;;;;;;5112999;28;20394;-27
2022/06/18 07:41:34;;;;;;;11.10;5.70;;;24.40;63.80;;;;;;5112796;28;20036;-28
2022/06/18 07:44:00;;;;;;;7.75;5.18;;;24.40;63.70;;;;;;5113802;28;20077;-27
2022/06/18 07:46:25;;;;;;;6.72;4.35;;;24.50;63.60;;;;;;5116906;28;20019;-27
2022/06/18 07:48:51;;;;;;;7.68;4.13;;;24.50;63.50;;;;;;5116698;28;20072;-27
2022/06/18 07:51:17;;;;;;;9.48;4.60;;;24.60;63.30;;;;;;5116664;28;20034;-28
2022/06/18 07:53:43;;;;;;;4.90;3.83;;;24.70;63.10;;;;;;5116465;28;20076;-28
2022/06/18 07:56:10;;;;;;;7.20;4.05;;;24.70;62.90;;;;;;5117130;28;20519;-28
2022/06/18 07:58:36;;;;;;;9.00;4.20;;;24.70;62.80;;;;;;5116667;28;20038;-28
2022/06/18 08:01:02;;;;;;;8.40;4.28;;;24.80;62.70;;;;;;5116404;28;20015;-30
2022/06/18 08:03:28;;;;;;;7.85;4.40;;;24.90;62.60;;;;;;5116332;28;20067;-27
2022/06/18 08:05:54;;;;;;;7.38;3.88;;;24.90;62.50;;;;;;5116421;28;20155;-29
2022/06/18 08:08:19;;;;;;;5.55;3.65;;;25.00;62.50;;;;;;5116252;28;20163;-30
2022/06/18 08:10:48;;;;;;;5.93;3.53;;;25.10;62.40;;;;;;5116540;28;20059;-29
2022/06/18 08:13:14;;;;;;;7.00;3.83;;;25.20;62.30;;;;;;5116167;28;20036;-31
2022/06/18 08:15:40;;;;;;;6.25;3.90;;;25.20;62.10;;;;;;5116103;28;20391;-28
2022/06/18 08:18:06;;;;;;;4.65;3.72;;;25.30;62.00;;;;;;5116122;28;20057;-28
2022/06/18 08:20:34;;;;;;;7.05;3.35;;;25.40;61.90;;;;;;5116518;28;20049;-27
2022/06/18 08:23:01;;;;;;;5.65;3.30;;;25.40;61.70;;;;;;5115795;28;20036;-27
2022/06/18 08:25:30;;;;;;;7.25;3.78;;;25.50;61.70;;;;;;5116146;28;20028;-31
2022/06/18 08:27:57;;;;;;;8.85;3.65;;;25.60;61.70;;;;;;5116029;28;20110;-30
2022/06/18 08:30:25;;;;;;;9.55;4.10;;;25.60;61.70;;;;;;5116257;28;20401;-27
2022/06/18 08:32:50;;;;;;;6.97;3.72;;;25.70;61.60;;;;;;5116016;28;20027;-30
2022/06/18 08:35:16;;;;;;;5.50;3.75;;;25.70;61.50;;;;;;5116044;27;20031;-27
2022/06/18 08:37:43;;;;;;;6.30;3.67;;;25.80;61.40;;;;;;5115602;28;20035;-28
2022/06/18 08:40:37;;;;;;;5.50;2.90;;;25.90;61.40;;;;;;5115554;28;20428;-27
2022/06/18 08:43:24;;;;;;;6.28;3.25;;;25.90;61.20;;;;;;5115531;28;20040;-36
2022/06/18 08:46:13;;;;;;;6.80;3.50;;;26.00;61.00;;;;;;5115784;28;20110;-28
2022/06/18 08:48:48;;;;;;;7.32;3.97;;;26.10;60.90;;;;;;5115560;28;20069;-34
2022/06/18 08:51:38;;;;;;;7.32;3.42;;;26.10;60.80;;;;;;5115908;28;20479;-28
2022/06/18 08:54:31;;;;;;;5.40;3.17;;;26.20;60.80;;;;;;5115499;28;20518;-28
2022/06/18 08:57:17;;;;;;;7.30;3.47;;;26.20;60.10;;;;;;5116250;28;20055;-28
2022/06/18 09:00:10;;;;;;;7.90;3.40;;;26.30;59.90;;;;;;5115380;28;20034;-28
2022/06/18 09:02:46;;;;;;;6.22;3.70;;;26.30;59.70;;;;;;5115300;28;20035;-28
2022/06/18 09:05:37;;;;;;;7.28;3.45;;;26.40;59.60;;;;;;5115227;28;20055;-29
2022/06/18 09:08:29;;;;;;;6.90;3.40;;;26.40;59.50;;;;;;5115177;28;20041;-28
2022/06/18 09:11:09;;;;;;;9.30;3.55;;;26.40;59.40;;;;;;5115245;28;20055;-27
2022/06/18 09:13:47;;;;;;;6.47;3.30;;;26.40;59.40;;;;;;5115223;27;20035;-29
2022/06/18 09:16:18;;;;;;;6.28;3.22;;;26.50;59.40;;;;;;5115285;28;20130;-28
2022/06/18 09:18:52;;;;;;;7.75;3.20;;;26.50;59.20;;;;;;5115259;28;20058;-28
2022/06/18 09:21:42;;;;;;;5.70;3.15;;;26.60;58.90;;;;;;5114824;28;20028;-28
2022/06/18 09:24:16;;;;;;;6.15;3.33;;;26.60;58.80;;;;;;5109049;28;20110;-28
2022/06/18 09:26:45;;;;;;;5.22;3.22;;;26.70;58.80;;;;;;5114885;28;20028;-28
2022/06/18 09:30:09;;;;;;;10.00;3.08;;;26.80;58.70;;;;;;5114684;28;20121;-28
2022/06/18 09:32:34;;;;;;;4.93;3.38;;;26.90;58.60;;;;;;5071820;28;20045;-30
2022/06/18 09:35:03;;;;;;;4.90;2.97;;;27.00;58.40;;;;;;5105651;28;20548;-32
2022/06/18 09:37:42;;;;;;;5.70;2.83;;;27.10;58.20;;;;;;5114669;28;20084;-28
2022/06/18 09:40:17;;;;;;;5.43;3.10;;;27.10;57.90;;;;;;5114516;28;20047;-30
2022/06/18 09:42:49;;;;;;;8.32;3.20;;;27.20;57.80;;;;;;5114510;28;20456;-29
2022/06/18 09:45:24;;;;;;;7.87;3.20;;;27.30;57.70;;;;;;5114552;28;20418;-28
2022/06/18 09:47:50;;;;;;;6.40;3.50;;;27.30;57.60;;;;;;5114426;28;20110;-29
2022/06/18 09:50:29;;;;;;;6.18;3.40;;;27.40;57.60;;;;;;5114768;28;20024;-28
2022/06/18 09:53:05;;;;;;;10.45;3.65;;;27.40;58.10;;;;;;5114600;28;20027;-29
2022/06/18 09:55:53;;;;;;;8.70;3.92;;;27.40;57.30;;;;;;5114460;28;20100;-29
2022/06/18 09:58:29;;;;;;;7.72;3.33;;;27.40;57.40;;;;;;5113282;28;20043;-30
2022/06/18 10:00:57;;;;;;;8.60;3.63;;;27.50;57.50;;;;;;5114445;28;20077;-28
2022/06/18 10:09:03;;;;;;;8.52;3.78;;;27.70;57.10;;;;;;5114179;28;20143;-29
2022/06/18 10:11:29;;;;;;;6.70;3.65;;;27.80;57.00;;;;;;5114162;28;20111;-31
2022/06/18 10:14:18;;;;;;;5.93;3.60;;;27.80;56.90;;;;;;5113752;28;20066;-29
2022/06/18 10:17:05;;;;;;;7.43;3.60;;;27.90;56.80;;;;;;5113978;28;20044;-28
2022/06/18 10:19:46;;;;;;;10.63;4.20;;;27.90;56.60;;;;;;5113695;28;20024;-28
2022/06/18 10:22:49;;;;;;;5.20;3.50;;;27.90;56.40;;;;;;5113938;28;20027;-28
2022/06/18 10:25:42;;;;;;;5.70;2.90;;;28.00;56.50;;;;;;5113738;28;20498;-28
2022/06/18 10:28:26;;;;;;;5.68;3.22;;;28.00;56.30;;;;;;5114063;28;20035;-30
2022/06/18 10:31:29;;;;;;;5.72;3.15;;;28.00;56.20;;;;;;5113455;28;20024;-30
2022/06/18 10:33:57;;;;;;;5.90;3.20;;;28.10;56.10;;;;;;5113397;28;20031;-28
2022/06/18 10:36:58;;;;;;;6.90;3.10;;;28.30;56.00;;;;;;5113545;28;20062;-30
2022/06/18 10:39:31;;;;;;;8.00;3.92;;;28.40;55.80;;;;;;5113574;28;20051;-29
2022/06/18 10:42:32;;;;;;;7.60;3.60;;;28.40;55.60;;;;;;5113765;28;20040;-36
2022/06/18 10:45:18;;;;;;;9.15;3.38;;;28.50;55.60;;;;;;5090951;28;20471;-30
2022/06/18 10:47:48;;;;;;;7.18;3.35;;;28.50;55.50;;;;;;5113800;28;20027;-29
2022/06/18 10:50:18;;;;;;;9.32;3.80;;;28.60;55.50;;;;;;5113875;28;20027;-29
2022/06/18 10:52:44;;;;;;;6.60;3.20;;;28.60;55.50;;;;;;5113408;28;20031;-28
2022/06/18 10:55:20;;;;;;;7.22;3.45;;;28.80;55.40;;;;;;5113652;28;20032;-31
2022/06/18 10:57:48;;;;;;;9.32;3.45;;;28.90;55.20;;;;;;5112884;28;20052;-29
2022/06/18 11:00:19;;;;;;;6.93;2.90;;;28.90;55.00;;;;;;5113386;28;20020;-28
2022/06/18 11:02:47;;;;;;;8.57;3.75;;;29.00;54.90;;;;;;5113193;28;20042;-32
2022/06/18 11:05:27;;;;;;;9.32;3.85;;;29.10;54.60;;;;;;5113246;28;20022;-28
2022/06/18 11:07:54;;;;;;;8.25;4.03;;;29.20;54.20;;;;;;5113103;28;20026;-33
2022/06/18 11:10:44;;;;;;;8.40;3.25;;;29.20;54.80;;;;;;5113597;28;20027;-32
2022/06/18 11:13:27;;;;;;;6.18;3.20;;;29.20;54.00;;;;;;5107020;28;20111;-28
2022/06/18 11:16:12;;;;;;;6.80;3.65;;;29.30;53.90;;;;;;5113280;28;20020;-30
2022/06/18 11:18:50;;;;;;;7.65;3.50;;;29.30;53.60;;;;;;5113625;28;20032;-29
2022/06/18 11:21:23;;;;;;;6.00;3.50;;;29.40;53.40;;;;;;5117379;28;20055;-29
2022/06/18 11:23:54;;;;;;;;;;;29.40;53.20;;;;;;5117617;28;20024;-30
2022/06/18 11:26:23;;;;;;;8.05;3.90;;;29.50;53.20;;;;;;5117124;28;19908;-30
2022/06/18 11:28:51;;;;;;;7.82;3.03;;;29.50;53.00;;;;;;5117264;28;20047;-32
2022/06/18 11:31:35;;;;;;;5.70;3.30;;;29.60;52.90;;;;;;5117275;28;20031;-32
2022/06/18 11:34:16;;;;;;;5.82;3.45;;;29.70;52.70;;;;;;5116875;28;20436;-33
2022/06/18 11:36:47;;;;;;;6.50;3.13;;;29.80;52.10;;;;;;5117245;28;20034;-33
2022/06/18 11:39:30;;;;;;;7.35;2.88;;;29.90;51.90;;;;;;5116902;28;20019;-30
2022/06/18 11:42:04;;;;;;;6.25;3.17;;;30.00;51.70;;;;;;5117004;28;20081;-31
2022/06/18 11:44:38;;;;;;;4.25;2.63;;;30.00;51.50;;;;;;5116698;28;20030;-31
2022/06/18 11:47:20;;;;;;;6.78;2.70;;;30.10;51.00;;;;;;5116717;28;20047;-31
2022/06/18 11:50:16;;;;;;;7.05;2.85;;;30.20;50.70;;;;;;5116593;28;20036;-30
2022/06/18 11:52:51;;;;;;;4.85;2.60;;;30.30;50.30;;;;;;5112414;28;20070;-31
2022/06/18 11:55:26;;;;;;;5.22;2.97;;;30.40;50.10;;;;;;5116448;28;20031;-30
2022/06/18 11:58:05;;;;;;;7.43;2.60;;;30.50;49.80;;;;;;5116565;28;20353;-31
2022/06/18 12:00:46;;;;;;;5.53;2.70;;;30.60;49.30;;;;;;5116548;28;20547;-30
2022/06/18 12:03:24;;;;;;;9.80;3.05;;;30.70;49.40;;;;;;5116701;28;20143;-32
2022/06/18 12:06:01;;;;;;;4.93;2.47;;;30.80;48.90;;;;;;5116572;28;20024;-32
2022/06/18 12:08:28;;;;;;;5.78;2.85;;;30.80;48.50;;;;;;5116544;28;20027;-33
2022/06/18 12:11:13;;;;;;;6.60;2.97;;;30.80;48.40;;;;;;5116211;28;20020;-32
2022/06/18 12:13:45;;;;;;;6.40;3.03;;;30.90;48.00;;;;;;5116396;28;20024;-31
2022/06/18 12:16:39;;;;;;;6.30;2.50;;;30.90;47.90;;;;;;5116193;28;20026;-32
2022/06/18 12:19:13;;;;;;;8.10;2.42;;;31.00;47.80;;;;;;5116451;28;20031;-30
2022/06/18 12:21:45;;;;;;;5.90;2.53;;;31.10;48.00;;;;;;5116089;28;20032;-31
2022/06/18 12:24:48;;;;;;;6.82;3.10;;;31.10;47.80;;;;;;5116434;28;20135;-32
2022/06/18 12:27:26;;;;;;;6.70;2.53;;;31.20;47.70;;;;;;5116383;27;20463;-31
2022/06/18 12:30:07;;;;;;;5.88;2.97;;;31.30;47.60;;;;;;5115503;28;20023;-33
2022/06/18 12:32:57;;;;;;;8.23;3.13;;;31.30;47.60;;;;;;5115880;28;20039;-30
2022/06/18 12:35:35;;;;;;;6.03;2.60;;;31.40;47.60;;;;;;5115939;28;20031;-35
2022/06/18 12:38:24;;;;;;;6.13;2.83;;;31.40;47.70;;;;;;5115918;27;20027;-40
2022/06/18 12:40:57;;;;;;;5.97;3.05;;;31.50;47.50;;;;;;5115614;28;20074;-30
2022/06/18 12:43:47;;;;;;;;;;;31.40;47.50;;;;;;5116274;28;20047;-31
2022/06/18 12:46:28;;;;;;;9.55;3.00;;;31.40;47.70;;;;;;5115687;28;19908;-33
2022/06/18 12:49:08;;;;;;;6.68;2.72;;;31.30;47.80;;;;;;5115555;28;20023;-30
2022/06/18 12:52:14;;;;;;;5.78;2.92;;;31.30;47.90;;;;;;5115611;28;20031;-29
2022/06/18 12:54:56;;;;;;;5.97;2.97;;;31.30;48.10;;;;;;5115896;28;20034;-33
2022/06/18 12:57:41;;;;;;;6.55;3.05;;;31.30;48.30;;;;;;5115446;28;20115;-31
2022/06/18 13:00:33;;;;;;;7.38;3.20;;;31.40;48.30;;;;;;5115584;28;20028;-31
2022/06/18 13:03:23;;;;;;;9.55;3.85;;;31.50;48.30;;;;;;5095739;28;20053;-31
2022/06/18 13:05:52;;;;;;;4.63;2.72;;;31.60;48.10;;;;;;5115352;28;20031;-31
2022/06/18 13:08:48;;;;;;;6.65;3.13;;;31.60;48.00;;;;;;5115548;27;20547;-32
2022/06/18 13:11:23;;;;;;;7.25;3.05;;;31.70;47.90;;;;;;5115507;28;20393;-30
2022/06/18 13:14:17;;;;;;;7.40;3.42;;;31.90;47.80;;;;;;5115369;28;20028;-34
2022/06/18 13:17:04;;;;;;;9.25;3.28;;;32.10;47.40;;;;;;5114949;28;20031;-32
2022/06/18 13:19:42;;;;;;;7.63;2.90;;;32.20;47.20;;;;;;5115067;28;20051;-34
2022/06/18 13:22:08;;;;;;;5.85;3.15;;;32.30;47.10;;;;;;5114896;28;20038;-40
2022/06/18 13:30:40;;;;;;;4.78;2.65;;;32.60;46.60;;;;;;5115163;28;20034;-30
2022/06/18 13:33:21;;;;;;;7.53;3.10;;;32.70;46.70;;;;;;5114612;28;20035;-33
2022/06/18 13:35:59;;;;;;;8.82;3.10;;;32.80;46.50;;;;;;5114614;28;20031;-31
2022/06/18 13:38:37;;;;;;;7.03;3.30;;;32.90;46.40;;;;;;5114869;28;20108;-30
2022/06/18 13:41:19;;;;;;;6.65;3.08;;;32.90;46.10;;;;;;5114141;28;20039;-31